Time;durP1;ratioP1;P1;durP2;ratioP2;P2;SDS_P1;SDS_P2;PMS_P1;PMS_P2;Temp;Humidity;BMP_temperature;BMP_pressure;BME280_temperature;BME280_humidity;BME280_pressure;Samples;Min_cycle;Max_cycle;Signal;HPM_P1;HPM_P2
2024/04/07 00:14:44;;;;;;;5.87;2.47;;;;;;;16.23;100.00;100406.06;31426797;28;20060;-76
2024/04/07 00:29:50;;;;;;;3.80;2.10;;;;;;;15.66;100.00;100416.38;31425776;28;20103;-78
2024/04/07 00:44:51;;;;;;;3.47;2.30;;;;;;;15.47;100.00;100437.31;31410192;28;20072;-77
2024/04/07 00:59:52;;;;;;;4.23;3.17;;;;;;;15.10;100.00;100441.72;31451251;28;20061;-76
2024/04/07 01:14:53;;;;;;;3.73;2.23;;;;;;;14.92;100.00;100452.44;31432122;28;20074;-77
2024/04/07 01:29:54;;;;;;;3.20;2.27;;;;;;;14.63;100.00;100460.78;31416133;28;20052;-75
2024/04/07 01:44:55;;;;;;;3.30;2.30;;;;;;;14.48;100.00;100471.34;31410510;28;20056;-76
2024/04/07 01:59:57;;;;;;;4.93;2.67;;;;;;;14.42;100.00;100467.63;31434007;28;20498;-75
2024/04/07 02:14:58;;;;;;;4.83;2.33;;;;;;;14.56;100.00;100489.06;31431961;28;20052;-75
2024/04/07 02:29:59;;;;;;;2.70;2.10;;;;;;;14.53;100.00;100500.09;31410669;28;20064;-76
2024/04/07 03:00:21;;;;;;;3.80;2.30;;;;;;;14.55;100.00;100533.22;31443396;28;20052;-76
2024/04/07 03:15:22;;;;;;;3.80;2.57;;;;;;;14.35;100.00;100547.03;31456483;28;20146;-78
2024/04/07 03:30:23;;;;;;;4.93;2.67;;;;;;;14.36;100.00;100559.47;31427683;28;20054;-77
2024/04/07 03:45:24;;;;;;;5.20;3.00;;;;;;;14.46;100.00;100574.03;31435049;28;20052;-76
2024/04/07 04:00:25;;;;;;;4.17;2.50;;;;;;;14.68;100.00;100594.09;31455344;28;20059;-77
2024/04/07 04:15:26;;;;;;;6.23;3.07;;;;;;;15.10;100.00;100613.97;31442598;28;20506;-76
2024/04/07 04:30:27;;;;;;;7.97;2.72;;;;;;;15.67;100.00;100631.34;31435473;28;20078;-77
2024/04/07 04:45:28;;;;;;;6.07;2.93;;;;;;;16.30;100.00;100627.66;31452151;28;20053;-76
2024/04/07 05:00:29;;;;;;;6.33;3.03;;;;;;;17.17;95.53;100627.66;31411696;28;20071;-77
2024/04/07 05:15:30;;;;;;;7.90;3.03;;;;;;;18.18;85.43;100641.66;31423106;28;20087;-77
2024/04/07 05:30:31;;;;;;;21.60;6.63;;;;;;;19.31;75.12;100650.34;31424747;28;20049;-78
2024/04/07 05:45:32;;;;;;;6.28;3.47;;;;;;;20.45;68.67;100660.53;31456481;28;20718;-77
2024/04/07 06:00:36;;;;;;;6.22;3.30;;;;;;;21.62;62.34;100679.09;31431376;28;20057;-79
2024/04/07 06:15:37;;;;;;;5.33;2.77;;;;;;;22.87;56.99;100711.31;31468155;28;20053;-76
2024/04/07 06:30:38;;;;;;;4.82;2.60;;;;;;;23.41;55.07;100743.50;31426760;28;20064;-74
2024/04/07 06:45:39;;;;;;;132.25;32.60;;;;;;;24.22;51.38;100741.53;31396646;28;20060;-75
2024/04/07 07:00:40;;;;;;;3.72;2.20;;;;;;;24.85;51.19;100757.91;31438453;28;20055;-76
2024/04/07 07:15:41;;;;;;;3.33;2.15;;;;;;;26.31;43.91;100754.59;31444538;28;20052;-77
2024/04/07 07:30:42;;;;;;;6.70;2.50;;;;;;;27.21;41.24;100759.66;31437011;28;20441;-80
2024/04/07 07:45:47;;;;;;;3.47;1.85;;;;;;;27.93;38.64;100777.78;31464808;28;20489;-77
2024/04/07 08:00:48;;;;;;;2.30;1.20;;;;;;;28.26;37.17;100793.47;31436832;28;20045;-76
2024/04/07 08:15:49;;;;;;;2.78;1.33;;;;;;;28.96;35.75;100803.50;31467906;28;20044;-77
2024/04/07 08:30:50;;;;;;;2.63;1.23;;;;;;;29.38;35.66;100815.06;31442225;28;20113;-78
2024/04/07 08:45:53;;;;;;;5.17;2.23;;;;;;;29.39;35.34;100811.72;31460098;28;20067;-79
2024/04/07 09:00:56;;;;;;;2.00;1.35;;;;;;;29.93;33.95;100807.78;31438553;28;20044;-79
2024/04/07 09:15:57;;;;;;;4.85;1.20;;;;;;;30.33;33.51;100816.22;31440371;28;20048;-77
2024/04/07 09:30:58;;;;;;;2.73;1.20;;;;;;;30.24;32.86;100813.84;31422115;28;20040;-77
2024/04/07 09:46:05;;;;;;;2.45;1.20;;;;;;;30.58;32.92;100825.16;31440222;28;20273;-77
2024/04/07 10:01:06;;;;;;;2.05;1.00;;;;;;;31.46;31.98;100822.41;31414444;28;20502;-77
2024/04/07 10:16:08;;;;;;;0.80;0.75;;;;;;;31.92;29.49;100822.78;31446732;28;20049;-76
2024/04/07 10:31:09;;;;;;;1.02;0.90;;;;;;;31.06;30.71;100832.28;31423908;28;20048;-75
2024/04/07 10:46:10;;;;;;;3.10;1.02;;;;;;;31.05;32.21;100823.09;31419655;28;20794;-77
2024/04/07 11:01:12;;;;;;;39.05;23.70;;;;;;;32.17;31.12;100825.94;31452053;28;20090;-76
2024/04/07 11:16:13;;;;;;;3.28;2.22;;;;;;;32.07;30.26;100805.31;31437772;28;20057;-76
2024/04/07 11:31:14;;;;;;;1.98;1.10;;;;;;;33.31;29.36;100815.19;31439746;28;20045;-76
2024/04/07 11:46:16;;;;;;;1.55;1.10;;;;;;;33.17;30.12;100817.41;31448122;28;20136;-75
2024/04/07 12:01:17;;;;;;;9.45;1.75;;;;;;;29.71;31.51;100808.94;31416987;28;20052;-76
2024/04/07 12:16:18;;;;;;;1.80;1.10;;;;;;;28.05;32.74;100809.91;31431142;28;20048;-81
2024/04/07 12:31:19;;;;;;;1.87;0.77;;;;;;;26.92;33.98;100808.47;31411597;28;20107;-80
2024/04/07 12:46:21;;;;;;;2.90;0.98;;;;;;;25.86;34.93;100811.56;31441501;28;20060;-77
2024/04/07 13:01:23;;;;;;;25.07;12.30;;;;;;;25.83;35.23;100813.34;31429273;28;20091;-77
2024/04/07 13:16:24;;;;;;;2.95;1.45;;;;;;;25.65;35.25;100805.53;31431360;28;20155;-76
2024/04/07 13:31:25;;;;;;;1.50;1.10;;;;;;;25.72;35.59;100816.16;31365834;28;20582;-75
2024/04/07 13:46:26;;;;;;;8.38;1.90;;;;;;;25.72;35.78;100816.16;31450392;28;20060;-77
2024/04/07 14:01:27;;;;;;;11.23;6.43;;;;;;;25.67;36.74;100817.66;31434266;28;20061;-79
2024/04/07 14:16:34;;;;;;;5.32;3.00;;;;;;;25.87;36.31;100811.06;31451402;28;20305;-77
2024/04/07 14:31:35;;;;;;;3.30;1.60;;;;;;;25.38;36.63;100816.09;31456067;28;20048;-76
2024/04/07 14:46:36;;;;;;;1.20;0.90;;;;;;;25.45;36.59;100820.41;31458339;28;20318;-77
2024/04/07 15:01:38;;;;;;;3.45;1.40;;;;;;;25.31;37.24;100821.38;31444187;28;20525;-76
2024/04/07 15:16:39;;;;;;;32.45;14.20;;;;;;;25.27;37.24;100830.00;31443312;28;20052;-75
2024/04/07 15:31:40;;;;;;;5.55;2.63;;;;;;;24.96;37.48;100841.28;31452913;28;20056;-77
2024/04/07 15:46:41;;;;;;;8.70;2.53;;;;;;;24.62;38.24;100852.22;31406837;28;20064;-75
2024/04/07 16:01:43;;;;;;;3.67;1.52;;;;;;;24.45;38.38;100852.13;31441939;28;20720;-75
2024/04/07 16:16:44;;;;;;;9.32;2.45;;;;;;;24.14;39.19;100864.03;31429000;28;20044;-77
2024/04/07 16:31:45;;;;;;;23.27;11.05;;;;;;;23.70;39.65;100864.44;31436777;28;20079;-75
2024/04/07 16:46:46;;;;;;;10.15;6.55;;;;;;;23.44;39.98;100881.06;31433229;28;20056;-74
2024/04/07 17:01:47;;;;;;;17.83;6.60;;;;;;;23.20;40.21;100891.63;31423831;28;20064;-76
2024/04/07 17:16:49;;;;;;;9.00;3.35;;;;;;;22.59;41.04;100905.44;31385592;28;20322;-76
2024/04/07 17:31:50;;;;;;;5.55;2.30;;;;;;;22.29;41.85;100901.22;31416902;28;20501;-77
2024/04/07 17:46:51;;;;;;;6.43;3.15;;;;;;;22.22;41.88;100901.59;31422117;28;20048;-76
2024/04/07 18:01:52;;;;;;;5.35;2.60;;;;;;;22.03;41.98;100907.34;31428868;28;20067;-76
2024/04/07 18:16:53;;;;;;;4.75;2.20;;;;;;;21.85;42.55;100907.53;31454137;28;20533;-77
2024/04/07 18:31:54;;;;;;;7.38;3.80;;;;;;;21.76;42.58;100926.97;31466818;28;20158;-75
2024/04/07 18:46:55;;;;;;;21.88;12.52;;;;;;;21.77;42.57;100929.25;31445820;28;20049;-78
2024/04/07 19:01:56;;;;;;;8.13;2.30;;;;;;;21.90;42.27;100937.28;31422715;28;20063;-74
2024/04/07 19:16:57;;;;;;;3.60;1.88;;;;;;;21.72;42.48;100948.50;31439641;28;20040;-76
2024/04/07 19:31:59;;;;;;;8.80;2.10;;;;;;;21.60;42.67;100979.91;31466041;28;20045;-73
2024/04/07 19:47:00;;;;;;;13.25;5.00;;;;;;;20.80;43.87;100986.25;31443285;28;20047;-74
2024/04/07 20:02:01;;;;;;;12.50;4.68;;;;;;;20.62;44.77;100987.88;31450352;28;20053;-74
2024/04/07 20:17:03;;;;;;;6.72;3.75;;;;;;;20.02;47.13;100991.38;31406489;28;20095;-75
2024/04/07 20:32:05;;;;;;;6.40;3.45;;;;;;;19.90;49.26;100986.81;31401165;28;20775;-75
2024/04/07 20:47:06;;;;;;;8.18;3.63;;;;;;;19.38;52.10;100994.13;31402393;28;20484;-73
2024/04/07 21:02:09;;;;;;;9.95;4.75;;;;;;;19.05;55.01;101004.16;31409852;28;20060;-75
2024/04/07 21:17:10;;;;;;;7.57;3.58;;;;;;;18.81;58.76;101008.66;31417659;28;20506;-75
2024/04/07 21:32:11;;;;;;;6.43;4.00;;;;;;;18.57;61.91;101003.66;31429072;28;20056;-74
2024/04/07 21:47:12;;;;;;;7.80;4.53;;;;;;;18.44;66.28;101004.94;31409949;28;20182;-75
2024/04/07 22:02:14;;;;;;;13.20;5.06;;;;;;;18.35;68.67;101008.44;31454900;28;20525;-76
2024/04/07 22:17:16;;;;;;;10.75;5.28;;;;;;;18.17;71.41;101002.84;31429973;28;20457;-77
2024/04/07 22:32:17;;;;;;;13.52;5.28;;;;;;;17.88;74.95;100992.88;31434066;28;20064;-76
2024/04/07 22:47:18;;;;;;;11.85;5.93;;;;;;;17.72;77.45;100995.78;31416896;28;20060;-75
2024/04/07 23:02:20;;;;;;;9.70;5.10;;;;;;;17.66;78.21;100986.59;31453514;28;20061;-76
2024/04/07 23:17:21;;;;;;;10.60;5.33;;;;;;;17.54;79.49;100990.13;31481245;28;20045;-76
2024/04/07 23:32:22;;;;;;;17.93;5.70;;;;;;;17.64;78.48;100978.00;31463146;28;20057;-75
2024/04/07 23:47:23;;;;;;;10.15;5.13;;;;;;;17.82;77.85;100978.16;31461770;28;20486;-77
